Shell Knob, MO (65747)

06:46 PM CDT del 30 Settembre 2016 (GMT -0500)
Lampe / Baxter | | Change Station

Alt. 994 ft 36.57 °N, 93.48 °W | Updated 14 seconds ago

Overcast
Coperto
72.1 °F
Sembra 77 °F
N
0.9
Vento Variabile Vento da NO
Gusts 2.5 mph

Oggi
Massima -- | Minima -- °F
--% Possibilità di precip.
Ieri
Massima -- | Minima -- °F
Precip. -- in
Pressione 30.12 in
Visibilità 10.0 miglia
Nuvole Coperto 5500 ft
Indice di calore 77 °F
Punto di rugiada 55 °F
Umidità 55%
Piovosità 0.00 in
Spessore del manto nevoso Non disponibile.
7:09 AM 6:58 PM
Luna calante, 0% visible
METAR KFWB 302335Z AUTO 35003KT 10SM OVC055 19/13 A3012 RMK AO2
Pressione 30.12 in
Visibilità 10.0 miglia
Nuvole Coperto 5500 ft
Indice di calore 77 °F
Punto di rugiada 55 °F
Umidità 55%
Piovosità 0.00 in
Spessore del manto nevoso Non disponibile.
7:09 AM 6:58 PM
Luna calante, 0% visible
METAR KFWB 302335Z AUTO 35003KT 10SM OVC055 19/13 A3012 RMK AO2

10-Day Weather Forecast

Almanac

Astronomia

Sep. 30, 2016 Alba Tramonto
Ora attuale
Crepuscolo civile
Crepuscolo nautico
Crepuscolo astronomico
Luna
Estensione della luce visibile
Lunghezza del giorno
Tomorrow will be .
, % of the Moon is Illuminated

Gli estremi di oggi

State Highs State Lows

Community

WunderPhotos

Upload Photos

1,942,828 foto caricate!

WunderBlog® & News

Nearby

Qualità dell'aria

  Qualità dell'aria Indice AQ Inquinante
Not available.

Profondità neve

Stazione Profondità Altitudine

Attività sismica

Città  Distanza Mag. Data & Ora
Minimo Magnitudo Mostrato è 2.5.

Temperature delle acque costiere

Località Temperatura

Stations

Stazioni meteo nelle vicinanze

Ubicazione della stazione Temp. Raffreddamento del vento Punto di rugiada Umidità Vento Precip. Alt. Aggiornato Tipo
                   

Watches & Warnings

There are currently no watches in effect.